Time;durP1;ratioP1;P1;durP2;ratioP2;P2;SDS_P1;SDS_P2;PMS_P1;PMS_P2;Temp;Humidity;BMP_temperature;BMP_pressure;BME280_temperature;BME280_humidity;BME280_pressure;Samples;Min_cycle;Max_cycle;Signal;HPM_P1;HPM_P2
2021/11/24 00:01:07;;;;;;;45.25;31.42;;;7.10;99.90;;;;;;5071110;28;20491;-48
2021/11/24 00:03:33;;;;;;;48.30;32.65;;;7.20;99.90;;;;;;5080673;28;20044;-48
2021/11/24 00:05:59;;;;;;;46.10;32.25;;;7.10;99.90;;;;;;5084670;28;20570;-48
2021/11/24 00:08:25;;;;;;;43.20;32.22;;;6.90;99.90;;;;;;5068531;28;20032;-48
2021/11/24 00:10:51;;;;;;;48.22;32.38;;;6.90;99.90;;;;;;5065918;28;20078;-48
2021/11/24 00:13:17;;;;;;;64.00;40.25;;;7.00;99.90;;;;;;5066287;28;20058;-49
2021/11/24 00:15:42;;;;;;;63.42;42.55;;;6.70;99.90;;;;;;5066202;28;20036;-48
2021/11/24 00:18:09;;;;;;;52.40;33.30;;;6.60;99.90;;;;;;5067516;28;20431;-47
2021/11/24 00:20:35;;;;;;;59.08;38.45;;;5.90;99.90;;;;;;5073467;28;20078;-48
2021/11/24 00:23:00;;;;;;;63.75;40.15;;;5.70;99.90;;;;;;5069250;28;20468;-49
2021/11/24 00:25:26;;;;;;;62.88;41.05;;;6.20;99.90;;;;;;5068852;28;20144;-48
2021/11/24 00:27:52;;;;;;;55.72;37.28;;;6.20;99.90;;;;;;5070530;28;20029;-48
2021/11/24 00:30:18;;;;;;;59.30;39.08;;;6.20;99.90;;;;;;5074509;28;20553;-48
2021/11/24 00:32:44;;;;;;;60.08;40.08;;;6.20;99.90;;;;;;5087930;28;20045;-48
2021/11/24 00:35:10;;;;;;;70.85;47.00;;;6.50;99.90;;;;;;5071043;28;20536;-48
2021/11/24 00:37:36;;;;;;;65.25;42.25;;;6.70;99.90;;;;;;5070396;28;20064;-48
2021/11/24 00:40:05;;;;;;;65.93;43.65;;;6.80;99.90;;;;;;5074849;28;20495;-48
2021/11/24 00:42:31;;;;;;;52.40;36.50;;;6.60;99.90;;;;;;5072222;28;20080;-49
2021/11/24 00:44:56;;;;;;;58.17;39.40;;;6.30;99.90;;;;;;5069465;28;20060;-48
2021/11/24 00:47:22;;;;;;;65.05;42.03;;;6.40;99.90;;;;;;5070412;28;20379;-48
2021/11/24 00:49:48;;;;;;;60.70;41.60;;;6.60;99.90;;;;;;5033251;28;20085;-48
2021/11/24 00:52:14;;;;;;;65.43;41.83;;;6.70;99.90;;;;;;5071982;28;20115;-48
2021/11/24 00:54:39;;;;;;;119.57;66.07;;;6.50;99.90;;;;;;5068531;28;20047;-48
2021/11/24 00:57:05;;;;;;;68.68;45.55;;;6.70;99.90;;;;;;5066487;28;20462;-48
2021/11/24 00:59:31;;;;;;;58.70;40.25;;;6.90;99.90;;;;;;5073371;28;20533;-48
2021/11/24 01:01:57;;;;;;;57.40;37.78;;;7.00;99.90;;;;;;5071095;28;20033;-48
2021/11/24 01:04:23;;;;;;;53.03;35.05;;;6.70;99.90;;;;;;5038363;28;20131;-48
2021/11/24 01:06:49;;;;;;;55.60;36.65;;;6.40;99.90;;;;;;5067443;28;20094;-47
2021/11/24 01:09:14;;;;;;;53.58;35.65;;;6.30;99.90;;;;;;5072212;28;20036;-47
2021/11/24 01:11:41;;;;;;;49.25;34.08;;;6.70;99.90;;;;;;5070094;28;20020;-49
2021/11/24 01:14:08;;;;;;;53.65;35.70;;;6.40;99.90;;;;;;5070036;28;20048;-48
2021/11/24 01:16:35;;;;;;;51.03;34.53;;;6.10;99.90;;;;;;5074167;28;20032;-48
2021/11/24 01:19:02;;;;;;;51.53;35.58;;;6.10;99.90;;;;;;5068285;28;20064;-48
2021/11/24 01:21:28;;;;;;;54.65;35.38;;;6.30;99.90;;;;;;5071801;28;20395;-48
2021/11/24 01:23:53;;;;;;;52.78;35.85;;;6.20;99.90;;;;;;5068294;28;20044;-48
2021/11/24 01:26:19;;;;;;;51.58;33.80;;;5.80;99.90;;;;;;5067204;28;20045;-48
2021/11/24 01:28:45;;;;;;;48.67;33.38;;;5.70;99.90;;;;;;5068832;28;20123;-48
2021/11/24 01:31:11;;;;;;;48.22;33.40;;;5.80;99.90;;;;;;5068842;28;20116;-48
2021/11/24 01:33:37;;;;;;;51.42;32.88;;;5.90;99.90;;;;;;5068248;28;20070;-48
2021/11/24 01:36:03;;;;;;;53.47;35.80;;;5.70;99.90;;;;;;5066396;28;20048;-49
2021/11/24 01:38:29;;;;;;;42.45;31.30;;;5.90;99.90;;;;;;5004298;28;20412;-49
2021/11/24 01:40:55;;;;;;;46.33;31.35;;;6.10;99.90;;;;;;5068043;28;20078;-48
2021/11/24 01:43:21;;;;;;;48.03;33.53;;;6.10;99.90;;;;;;5021672;28;20036;-48
2021/11/24 01:45:47;;;;;;;53.67;37.55;;;6.30;99.90;;;;;;5065420;28;20136;-49
2021/11/24 01:48:12;;;;;;;50.13;33.67;;;6.50;99.90;;;;;;5035025;28;20407;-48
2021/11/24 01:50:39;;;;;;;49.92;34.20;;;6.70;99.90;;;;;;5066749;28;20198;-48
2021/11/24 01:53:05;;;;;;;49.75;34.08;;;6.70;99.90;;;;;;5060997;28;20424;-48
2021/11/24 01:55:31;;;;;;;46.10;32.08;;;6.80;99.90;;;;;;5067434;28;20033;-48
2021/11/24 01:57:57;;;;;;;49.45;35.35;;;6.90;99.90;;;;;;5045785;28;20065;-49
2021/11/24 02:00:28;;;;;;;51.38;34.38;;;6.90;99.90;;;;;;5071125;28;20043;-48
2021/11/24 02:02:54;;;;;;;59.47;37.72;;;6.90;99.90;;;;;;5049631;28;20037;-48
2021/11/24 02:05:21;;;;;;;62.08;39.72;;;6.90;99.90;;;;;;5071048;28;20044;-49
2021/11/24 02:07:47;;;;;;;56.03;36.40;;;6.50;99.90;;;;;;5067861;28;20024;-48
2021/11/24 02:10:13;;;;;;;54.33;35.88;;;6.50;99.90;;;;;;5071132;28;20031;-49
2021/11/24 02:12:39;;;;;;;49.15;34.15;;;6.50;99.90;;;;;;5083108;28;20049;-48
2021/11/24 02:15:07;;;;;;;49.53;32.55;;;6.20;99.90;;;;;;5071300;28;20039;-48
2021/11/24 02:17:33;;;;;;;43.28;30.88;;;5.90;99.90;;;;;;5068561;28;20477;-48
2021/11/24 02:19:59;;;;;;;40.60;27.85;;;5.90;99.90;;;;;;5070177;28;20047;-48
2021/11/24 02:22:25;;;;;;;37.25;26.15;;;6.10;99.90;;;;;;5030313;28;20036;-48
2021/11/24 02:24:50;;;;;;;37.45;26.05;;;6.10;99.90;;;;;;5069520;28;20106;-48
2021/11/24 02:27:16;;;;;;;39.13;27.55;;;6.30;99.90;;;;;;5070769;28;20027;-48
2021/11/24 02:29:46;;;;;;;37.80;26.02;;;6.10;99.90;;;;;;5067630;28;20366;-48
2021/11/24 02:32:14;;;;;;;37.88;26.58;;;6.00;99.90;;;;;;5068005;28;20147;-49
2021/11/24 02:34:40;;;;;;;38.25;25.17;;;5.90;99.90;;;;;;5071404;28;20357;-49
2021/11/24 02:37:06;;;;;;;36.55;24.83;;;5.80;99.90;;;;;;5069896;28;20031;-48
2021/11/24 02:39:32;;;;;;;42.58;26.60;;;5.50;99.90;;;;;;5070258;28;20033;-48
2021/11/24 02:41:58;;;;;;;40.33;26.27;;;5.40;99.90;;;;;;5083060;28;20036;-48
2021/11/24 02:44:30;;;;;;;39.40;26.70;;;5.40;99.90;;;;;;5069410;28;20051;-48
2021/11/24 02:47:15;;;;;;;41.80;25.75;;;5.60;99.90;;;;;;5070162;28;20496;-49
2021/11/24 02:49:47;;;;;;;39.63;27.42;;;5.30;99.90;;;;;;5067372;28;20041;-48
2021/11/24 02:52:14;;;;;;;39.28;27.73;;;5.20;99.90;;;;;;5067615;28;20630;-48
2021/11/24 02:54:47;;;;;;;39.20;26.05;;;4.90;99.90;;;;;;5068960;28;20106;-48
2021/11/24 02:57:13;;;;;;;35.22;23.45;;;4.80;99.90;;;;;;5069303;28;20033;-49
2021/11/24 02:59:39;;;;;;;37.20;25.70;;;4.70;99.90;;;;;;5068969;28;20035;-48
2021/11/24 03:02:05;;;;;;;36.20;24.50;;;4.70;99.90;;;;;;5072446;28;20064;-48
2021/11/24 03:04:32;;;;;;;36.25;24.60;;;4.70;99.90;;;;;;5070220;28;20414;-49
2021/11/24 03:06:59;;;;;;;40.67;26.33;;;4.40;99.90;;;;;;5067642;28;20036;-48
2021/11/24 03:09:25;;;;;;;41.42;25.30;;;4.30;99.90;;;;;;5066732;28;20032;-48
2021/11/24 03:11:53;;;;;;;38.13;23.60;;;4.20;99.90;;;;;;5068753;28;21063;-48
2021/11/24 03:14:19;;;;;;;39.15;26.23;;;4.10;99.90;;;;;;5069311;28;20110;-48
2021/11/24 03:16:46;;;;;;;45.53;28.85;;;4.10;99.90;;;;;;5070294;28;20036;-48
2021/11/24 03:19:12;;;;;;;46.22;30.02;;;4.20;99.90;;;;;;5088416;28;20086;-49
2021/11/24 03:21:37;;;;;;;47.10;29.15;;;4.20;99.90;;;;;;5086911;28;20474;-48
2021/11/24 03:24:04;;;;;;;46.65;29.50;;;4.30;99.90;;;;;;5019965;28;20560;-48
2021/11/24 03:26:30;;;;;;;43.42;28.92;;;4.40;99.90;;;;;;5055446;28;20498;-49
2021/11/24 03:28:56;;;;;;;48.53;30.77;;;4.50;99.90;;;;;;5056092;28;20072;-48
2021/11/24 03:31:21;;;;;;;48.92;30.73;;;4.50;99.90;;;;;;5087053;28;20077;-48
2021/11/24 03:33:47;;;;;;;50.45;31.55;;;4.50;99.90;;;;;;5055392;28;20032;-48
2021/11/24 03:36:13;;;;;;;69.40;43.33;;;4.50;99.90;;;;;;5055974;28;20587;-48
2021/11/24 03:38:39;;;;;;;69.25;42.90;;;4.90;99.90;;;;;;5085287;28;20044;-48
2021/11/24 03:41:05;;;;;;;53.17;35.70;;;5.30;99.90;;;;;;5071605;28;20895;-48
2021/11/24 03:43:31;;;;;;;55.17;31.55;;;5.50;99.90;;;;;;5069574;28;20055;-49
2021/11/24 03:45:56;;;;;;;55.67;37.47;;;5.80;99.90;;;;;;5071434;28;20529;-48
2021/11/24 03:48:22;;;;;;;53.97;36.15;;;5.60;99.90;;;;;;5086751;28;20039;-48
2021/11/24 03:50:49;;;;;;;53.20;33.67;;;5.10;99.90;;;;;;5074159;28;20485;-47
2021/11/24 03:53:15;;;;;;;48.97;32.85;;;4.70;99.90;;;;;;5069808;28;20557;-49
2021/11/24 03:55:40;;;;;;;48.75;31.73;;;4.70;99.90;;;;;;5074040;28;20103;-48
2021/11/24 03:58:06;;;;;;;46.67;30.73;;;4.60;99.90;;;;;;5028926;28;20105;-50
2021/11/24 04:00:33;;;;;;;53.53;32.58;;;4.50;99.90;;;;;;5072752;28;20468;-49
2021/11/24 04:02:59;;;;;;;54.30;34.08;;;4.50;99.90;;;;;;5073392;28;20500;-51
2021/11/24 04:05:25;;;;;;;47.47;32.63;;;4.60;99.90;;;;;;5072339;28;20040;-50
2021/11/24 04:07:51;;;;;;;64.30;38.50;;;4.60;99.90;;;;;;5085022;28;20086;-50
2021/11/24 04:10:17;;;;;;;85.68;50.08;;;4.50;99.90;;;;;;5075413;28;20414;-48
2021/11/24 04:12:44;;;;;;;58.47;36.50;;;4.40;99.90;;;;;;5067619;28;20036;-48
2021/11/24 04:15:13;;;;;;;50.65;31.95;;;4.30;99.90;;;;;;5071155;28;20044;-48
2021/11/24 04:17:39;;;;;;;44.28;28.42;;;4.20;99.90;;;;;;5071811;28;20040;-49
2021/11/24 04:20:08;;;;;;;49.65;31.13;;;4.10;99.90;;;;;;5073187;28;20041;-49
2021/11/24 04:22:34;;;;;;;47.00;30.42;;;4.10;99.90;;;;;;5034809;28;20127;-48
2021/11/24 04:25:00;;;;;;;47.28;30.40;;;4.20;99.90;;;;;;5068914;28;20175;-48
2021/11/24 04:27:26;;;;;;;45.38;29.90;;;4.20;99.90;;;;;;5072926;28;20036;-49
2021/11/24 04:29:52;;;;;;;50.15;30.92;;;4.20;99.90;;;;;;5069855;28;20025;-49
2021/11/24 04:32:18;;;;;;;43.40;28.20;;;4.10;99.90;;;;;;5072081;28;20036;-49
2021/11/24 04:34:44;;;;;;;47.20;29.05;;;4.10;99.90;;;;;;5073811;28;20025;-48
2021/11/24 04:37:10;;;;;;;49.67;31.33;;;4.10;99.90;;;;;;5061901;28;20111;-49
2021/11/24 04:39:36;;;;;;;50.70;31.98;;;4.10;99.90;;;;;;5086942;28;20124;-49
2021/11/24 04:42:02;;;;;;;48.65;31.00;;;4.10;99.90;;;;;;5071876;28;20037;-48
2021/11/24 04:44:28;;;;;;;50.22;30.67;;;4.10;99.90;;;;;;5068804;28;20041;-48
2021/11/24 04:46:54;;;;;;;51.97;30.85;;;4.00;99.90;;;;;;5069274;28;20053;-49
2021/11/24 04:49:20;;;;;;;47.63;30.45;;;4.00;99.90;;;;;;5072987;28;20107;-48
2021/11/24 04:51:46;;;;;;;46.10;27.83;;;4.10;99.90;;;;;;5070670;28;20074;-48
2021/11/24 04:54:12;;;;;;;48.85;30.50;;;4.10;99.90;;;;;;5072877;28;20025;-48
2021/11/24 04:56:38;;;;;;;47.97;29.98;;;4.10;99.90;;;;;;5071522;28;20024;-50
2021/11/24 04:59:04;;;;;;;47.20;32.03;;;4.10;99.90;;;;;;5071362;28;20056;-50
2021/11/24 05:01:30;;;;;;;45.65;29.40;;;4.10;99.90;;;;;;5072280;28;20067;-50
2021/11/24 05:03:56;;;;;;;48.55;32.33;;;4.20;99.90;;;;;;5074301;28;20036;-50
2021/11/24 05:06:23;;;;;;;50.38;32.38;;;4.40;99.90;;;;;;5069422;28;20028;-50
2021/11/24 05:08:49;;;;;;;47.97;31.05;;;4.80;99.90;;;;;;5068125;28;20045;-48
2021/11/24 05:11:18;;;;;;;47.80;33.22;;;5.00;99.90;;;;;;5072331;28;20033;-49
2021/11/24 05:13:50;;;;;;;51.45;35.92;;;5.00;99.90;;;;;;5066753;28;20045;-49
2021/11/24 05:16:16;;;;;;;59.58;37.13;;;5.20;99.90;;;;;;5088185;28;20058;-48
2021/11/24 05:18:47;;;;;;;46.47;33.58;;;5.40;99.90;;;;;;5087667;28;20676;-48
2021/11/24 05:21:36;;;;;;;54.03;35.95;;;5.50;99.90;;;;;;5072327;28;20419;-49
2021/11/24 05:24:00;;;;;;;56.15;33.28;;;5.80;99.90;;;;;;5046681;28;20055;-48
2021/11/24 05:26:27;;;;;;;51.72;33.22;;;5.90;99.90;;;;;;5090001;28;20040;-49
2021/11/24 05:28:53;;;;;;;53.33;33.30;;;5.90;99.90;;;;;;5091880;28;20058;-48
2021/11/24 05:31:20;;;;;;;49.13;32.60;;;5.60;99.90;;;;;;5088631;28;20377;-49
2021/11/24 05:33:47;;;;;;;46.65;31.83;;;5.50;99.90;;;;;;5089689;28;20130;-48
2021/11/24 05:36:13;;;;;;;56.42;35.78;;;5.70;99.90;;;;;;5028278;28;20087;-48
2021/11/24 05:38:39;;;;;;;50.30;33.15;;;5.60;99.90;;;;;;5031633;28;20393;-48
2021/11/24 05:41:05;;;;;;;50.20;34.78;;;5.30;99.90;;;;;;5014755;28;20042;-49
2021/11/24 05:43:31;;;;;;;60.50;39.33;;;5.40;99.90;;;;;;5031547;28;20025;-48
2021/11/24 05:48:24;;;;;;;58.35;37.40;;;5.20;99.90;;;;;;5026698;28;20029;-48
2021/11/24 05:50:51;;;;;;;52.10;35.42;;;5.40;99.90;;;;;;5010912;28;20041;-49
2021/11/24 05:53:19;;;;;;;53.35;34.13;;;5.20;99.90;;;;;;5023846;28;20389;-49
2021/11/24 05:55:47;;;;;;;48.97;31.58;;;5.20;99.90;;;;;;5027607;28;20095;-48
2021/11/24 05:58:14;;;;;;;47.95;30.92;;;5.40;99.90;;;;;;4998089;28;20048;-48
2021/11/24 06:00:41;;;;;;;45.58;30.45;;;5.60;99.90;;;;;;5028123;28;20413;-48
2021/11/24 06:03:07;;;;;;;42.05;31.23;;;5.80;99.90;;;;;;5028929;28;20053;-48
2021/11/24 06:05:33;;;;;;;48.63;31.08;;;5.90;99.90;;;;;;5027549;28;20525;-48
2021/11/24 06:08:00;;;;;;;46.53;32.70;;;6.10;99.90;;;;;;5046929;28;20095;-48
2021/11/24 06:10:27;;;;;;;51.22;36.08;;;6.10;99.90;;;;;;5069973;28;20051;-48
2021/11/24 06:12:53;;;;;;;53.83;38.58;;;6.20;99.90;;;;;;5071559;28;20946;-48
2021/11/24 06:15:19;;;;;;;63.78;40.25;;;6.30;99.90;;;;;;5067252;28;20086;-49
2021/11/24 06:17:46;;;;;;;58.72;38.75;;;6.40;99.90;;;;;;5065560;28;20041;-48
2021/11/24 06:20:13;;;;;;;58.42;40.42;;;6.50;99.90;;;;;;5069979;28;20123;-48
2021/11/24 06:22:40;;;;;;;65.65;44.00;;;6.60;99.90;;;;;;5071805;28;20029;-49
2021/11/24 06:25:07;;;;;;;67.68;44.42;;;6.80;99.90;;;;;;5068024;28;20051;-48
2021/11/24 06:27:34;;;;;;;65.38;42.60;;;7.70;99.90;;;;;;5068623;28;20040;-50
2021/11/24 06:30:00;;;;;;;92.55;59.97;;;8.60;99.90;;;;;;5086858;28;20102;-48
2021/11/24 06:32:26;;;;;;;66.95;47.97;;;9.60;99.90;;;;;;5072058;28;20107;-48
2021/11/24 06:34:52;;;;;;;37.25;28.77;;;10.30;99.90;;;;;;5072111;28;20020;-50
2021/11/24 06:37:18;;;;;;;74.90;47.17;;;10.90;99.90;;;;;;5072486;28;20039;-50
2021/11/24 06:39:44;;;;;;;46.53;32.53;;;11.50;99.90;;;;;;5066879;28;20036;-48
2021/11/24 06:42:10;;;;;;;93.82;33.03;;;11.90;99.90;;;;;;5069537;28;20418;-48
2021/11/24 06:44:36;;;;;;;96.10;31.13;;;11.60;99.90;;;;;;5077094;28;20047;-48
2021/11/24 06:47:02;;;;;;;201.43;37.15;;;11.50;99.90;;;;;;5073891;28;20090;-50
2021/11/24 06:49:28;;;;;;;174.10;36.78;;;10.80;99.90;;;;;;5073831;28;20107;-48
2021/11/24 06:51:53;;;;;;;237.00;38.50;;;10.10;99.90;;;;;;5076182;28;20025;-50
2021/11/24 06:54:19;;;;;;;239.15;36.95;;;9.20;99.90;;;;;;5068855;28;20028;-49
2021/11/24 06:56:47;;;;;;;414.13;40.35;;;8.90;99.90;;;;;;5067388;28;20073;-48
2021/11/24 06:59:13;;;;;;;247.23;37.28;;;8.80;99.90;;;;;;5069527;28;20028;-48
2021/11/24 07:01:39;;;;;;;197.73;34.00;;;8.40;99.90;;;;;;5086663;28;20576;-50
2021/11/24 07:04:05;;;;;;;348.67;38.50;;;8.30;99.90;;;;;;5084502;28;20139;-52
2021/11/24 07:06:30;;;;;;;253.75;36.72;;;8.00;99.90;;;;;;5057100;28;20418;-51
2021/11/24 07:08:56;;;;;;;247.00;33.50;;;8.10;99.90;;;;;;5057273;28;20039;-46
2021/11/24 07:11:27;;;;;;;309.52;38.72;;;7.80;99.90;;;;;;5088090;28;20047;-47
2021/11/24 07:13:53;;;;;;;204.25;36.83;;;7.60;99.90;;;;;;5087497;28;20045;-50
2021/11/24 07:16:19;;;;;;;259.20;33.10;;;7.70;99.90;;;;;;5070726;28;20069;-50
2021/11/24 07:18:44;;;;;;;170.77;32.35;;;7.40;99.90;;;;;;5085158;28;20040;-49
2021/11/24 07:21:10;;;;;;;200.00;31.83;;;7.20;99.90;;;;;;5089417;28;20035;-45
2021/11/24 07:23:36;;;;;;;245.43;35.38;;;7.10;99.90;;;;;;5052843;28;20047;-50
2021/11/24 07:26:02;;;;;;;213.48;34.83;;;7.20;99.90;;;;;;5046215;28;20048;-48
2021/11/24 07:28:27;;;;;;;215.90;36.15;;;7.40;99.90;;;;;;5085130;28;20040;-56
2021/11/24 07:30:53;;;;;;;144.23;33.92;;;7.40;99.90;;;;;;5086411;28;20024;-48
2021/11/24 07:33:19;;;;;;;151.85;36.45;;;7.30;99.90;;;;;;5073854;28;20116;-50
2021/11/24 07:35:45;;;;;;;122.38;34.85;;;7.30;99.90;;;;;;5066704;28;20187;-51
2021/11/24 07:38:11;;;;;;;134.88;37.92;;;7.30;99.90;;;;;;5071614;28;20017;-51
2021/11/24 07:40:36;;;;;;;160.90;49.05;;;7.30;99.90;;;;;;5073394;28;21697;-52
2021/11/24 07:43:03;;;;;;;280.13;76.97;;;7.00;99.90;;;;;;5069128;28;20492;-49
2021/11/24 07:45:29;;;;;;;236.77;84.40;;;6.70;99.90;;;;;;5064885;28;20091;-47
2021/11/24 07:47:54;;;;;;;220.07;78.15;;;6.90;99.90;;;;;;5065646;28;20037;-51
2021/11/24 07:50:20;;;;;;;213.20;70.78;;;7.20;99.90;;;;;;5063772;28;20420;-55
2021/11/24 07:52:46;;;;;;;245.52;72.47;;;7.30;99.90;;;;;;5070338;28;20529;-57
2021/11/24 07:55:12;;;;;;;303.10;81.25;;;7.60;99.90;;;;;;5068933;28;20112;-53
2021/11/24 07:57:37;;;;;;;292.80;80.32;;;7.60;99.90;;;;;;5066441;28;20491;-55
2021/11/24 08:00:07;;;;;;;234.68;85.55;;;7.40;99.90;;;;;;5070468;28;20086;-53
2021/11/24 08:02:33;;;;;;;341.10;98.85;;;7.50;99.90;;;;;;5024704;28;20041;-53
2021/11/24 08:04:59;;;;;;;245.38;90.40;;;7.30;99.90;;;;;;5024625;28;20046;-55
2021/11/24 08:07:24;;;;;;;311.90;94.20;;;7.10;99.90;;;;;;5033836;28;20117;-54
2021/11/24 08:09:51;;;;;;;341.92;102.25;;;7.20;99.90;;;;;;5022824;28;20033;-53
2021/11/24 08:12:17;;;;;;;238.70;69.72;;;7.30;99.90;;;;;;5029010;28;20049;-54
2021/11/24 08:14:43;;;;;;;183.90;65.60;;;7.40;99.90;;;;;;5026785;28;20049;-56
2021/11/24 08:17:09;;;;;;;197.93;62.55;;;7.50;99.90;;;;;;5027484;28;20055;-53
2021/11/24 08:19:35;;;;;;;207.02;62.42;;;7.80;99.90;;;;;;5032452;28;20022;-51
2021/11/24 08:22:01;;;;;;;164.73;60.38;;;8.10;99.90;;;;;;5026205;28;20093;-53
2021/11/24 08:24:28;;;;;;;140.18;58.17;;;8.20;99.90;;;;;;5008698;28;20038;-57
2021/11/24 08:26:54;;;;;;;127.32;57.25;;;8.30;99.90;;;;;;5033142;28;20041;-51
2021/11/24 08:29:20;;;;;;;118.32;55.40;;;8.70;99.90;;;;;;5035914;28;20067;-52
2021/11/24 08:31:46;;;;;;;119.78;55.13;;;8.50;99.90;;;;;;5028849;28;20113;-53
2021/11/24 08:34:14;;;;;;;148.98;58.53;;;8.50;99.90;;;;;;5058891;28;20396;-50
2021/11/24 08:36:40;;;;;;;159.50;59.03;;;8.40;99.90;;;;;;5068533;28;20091;-51
2021/11/24 08:39:07;;;;;;;124.72;57.20;;;8.40;99.90;;;;;;5070127;28;20040;-51
2021/11/24 08:41:33;;;;;;;121.78;57.65;;;8.60;99.90;;;;;;5071524;28;20050;-52
2021/11/24 08:44:00;;;;;;;106.70;55.97;;;8.70;99.90;;;;;;5071765;28;20086;-52
2021/11/24 08:46:26;;;;;;;89.18;50.05;;;9.30;99.90;;;;;;5087100;28;20536;-53
2021/11/24 08:48:52;;;;;;;85.03;53.80;;;9.20;99.90;;;;;;5073487;28;20398;-53
2021/11/24 08:51:18;;;;;;;85.65;54.20;;;9.60;99.90;;;;;;5070310;28;20027;-50
2021/11/24 08:53:44;;;;;;;100.47;51.28;;;9.60;99.90;;;;;;5069036;28;20025;-54
2021/11/24 08:56:11;;;;;;;107.38;50.72;;;9.60;99.90;;;;;;5065263;28;20036;-50
2021/11/24 08:58:36;;;;;;;85.07;51.20;;;9.60;99.90;;;;;;5066975;28;20565;-52
2021/11/24 09:01:02;;;;;;;69.65;44.83;;;9.70;99.90;;;;;;5087097;28;20067;-50
2021/11/24 09:03:28;;;;;;;82.70;50.83;;;9.80;99.90;;;;;;5074783;28;20036;-53
2021/11/24 09:05:54;;;;;;;85.03;60.25;;;9.90;99.90;;;;;;5068852;28;20523;-53
2021/11/24 09:08:20;;;;;;;86.35;59.13;;;10.30;99.90;;;;;;5071805;28;20029;-53
2021/11/24 09:10:45;;;;;;;75.88;50.47;;;11.00;99.90;;;;;;5053451;28;20045;-53
2021/11/24 09:13:11;;;;;;;102.72;69.47;;;11.00;99.90;;;;;;5071830;28;20127;-51
2021/11/24 09:15:37;;;;;;;170.60;118.95;;;12.30;99.90;;;;;;5070257;28;20037;-51
2021/11/24 09:18:04;;;;;;;132.68;95.03;;;13.60;99.90;;;;;;5068733;28;20033;-54
2021/11/24 09:20:32;;;;;;;57.83;46.45;;;14.80;99.90;;;;;;5066435;28;20021;-52
2021/11/24 09:22:58;;;;;;;58.08;43.92;;;15.80;99.90;;;;;;5062794;28;20047;-50
2021/11/24 09:25:34;;;;;;;44.05;35.80;;;17.00;99.90;;;;;;5079840;28;20049;-52
2021/11/24 09:28:07;;;;;;;38.63;34.53;;;16.60;99.90;;;;;;5065652;28;20028;-51
2021/11/24 09:30:33;;;;;;;43.88;37.53;;;17.30;99.90;;;;;;5066132;28;20032;-51
2021/11/24 09:32:59;;;;;;;46.05;37.20;;;17.60;99.90;;;;;;5065167;28;20024;-52
2021/11/24 09:35:24;;;;;;;44.63;35.60;;;17.80;99.90;;;;;;5066075;28;20031;-53
2021/11/24 09:37:50;;;;;;;42.45;36.38;;;18.70;99.90;;;;;;5085311;28;20507;-52
2021/11/24 09:40:16;;;;;;;41.63;34.70;;;19.30;98.50;;;;;;5038518;28;20059;-51
2021/11/24 09:42:45;;;;;;;42.83;37.13;;;19.80;96.40;;;;;;5074216;28;20456;-54
2021/11/24 09:45:13;;;;;;;38.42;34.38;;;19.40;96.00;;;;;;5071297;28;20377;-48
2021/11/24 09:47:38;;;;;;;42.80;38.17;;;19.60;95.70;;;;;;5071384;28;20555;-48
2021/11/24 09:50:07;;;;;;;46.08;39.30;;;19.90;94.90;;;;;;5087992;28;20119;-49
2021/11/24 09:52:34;;;;;;;53.83;46.63;;;19.20;94.10;;;;;;5068224;28;20036;-51
2021/11/24 09:55:00;;;;;;;47.88;42.67;;;19.40;93.60;;;;;;5073826;28;20020;-51
2021/11/24 09:57:27;;;;;;;50.67;42.03;;;19.50;94.50;;;;;;5079415;28;20355;-51
2021/11/24 09:59:53;;;;;;;48.22;37.78;;;19.50;94.00;;;;;;5087312;28;20048;-51
2021/11/24 10:02:21;;;;;;;46.92;41.88;;;19.50;93.70;;;;;;5073275;28;20103;-52
2021/11/24 10:04:48;;;;;;;44.60;39.78;;;19.40;93.80;;;;;;5072603;28;20086;-52
2021/11/24 10:07:17;;;;;;;47.25;42.50;;;20.00;93.20;;;;;;5066754;28;20032;-52
2021/11/24 10:09:44;;;;;;;46.85;42.15;;;19.40;93.00;;;;;;5069723;28;20127;-52
2021/11/24 10:12:11;;;;;;;45.25;40.92;;;18.60;93.70;;;;;;5063705;28;20032;-52
2021/11/24 10:14:38;;;;;;;44.00;36.70;;;18.40;93.30;;;;;;5064010;28;20720;-52
2021/11/24 10:17:05;;;;;;;41.25;35.85;;;18.80;93.60;;;;;;5064875;28;20046;-52
2021/11/24 10:19:31;;;;;;;42.25;37.97;;;19.10;93.30;;;;;;5079364;28;20040;-52
2021/11/24 10:22:04;;;;;;;38.38;34.28;;;19.20;92.70;;;;;;5061607;28;20025;-51
2021/11/24 10:24:41;;;;;;;39.55;35.35;;;19.30;92.60;;;;;;5087855;28;20037;-51
2021/11/24 10:27:12;;;;;;;43.45;38.47;;;19.20;92.70;;;;;;5073341;28;20117;-51
2021/11/24 10:29:40;;;;;;;44.92;39.58;;;;;;;;;;5070099;28;20083;-51
2021/11/24 10:32:10;;;;;;;47.33;42.40;;;20.50;91.60;;;;;;5068210;28;20112;-50
2021/11/24 10:34:39;;;;;;;57.38;48.97;;;19.50;91.30;;;;;;5063481;28;20025;-51
2021/11/24 10:37:05;;;;;;;40.95;34.78;;;20.50;91.90;;;;;;5056729;28;20041;-51
2021/11/24 10:39:47;;;;;;;42.40;36.50;;;20.90;90.50;;;;;;5102397;28;20040;-51
2021/11/24 10:42:13;;;;;;;;;;;20.30;90.30;;;;;;5090454;28;20055;-51
2021/11/24 10:44:40;;;;;;;41.97;36.55;;;;;;;;;;5092953;28;20405;-51
2021/11/24 10:47:09;;;;;;;36.17;32.38;;;18.80;94.20;;;;;;5092998;28;20036;-51
2021/11/24 10:49:41;;;;;;;37.58;32.90;;;19.50;90.60;;;;;;5107997;28;20036;-51
2021/11/24 10:52:21;;;;;;;35.75;30.67;;;20.10;90.60;;;;;;5084962;28;20416;-51
2021/11/24 10:55:07;;;;;;;31.27;27.73;;;20.00;87.60;;;;;;5063663;28;20431;-51
2021/11/24 10:57:37;;;;;;;31.77;28.38;;;;;;;;;;5072820;28;20031;-51
2021/11/24 11:00:12;;;;;;;36.30;30.67;;;17.00;89.20;;;;;;5072818;28;20024;-51
2021/11/24 11:02:46;;;;;;;35.92;31.42;;;17.10;90.50;;;;;;5086702;28;20036;-52
2021/11/24 11:05:14;;;;;;;33.50;28.30;;;17.20;91.00;;;;;;5087262;28;20041;-51
2021/11/24 11:07:49;;;;;;;33.80;30.20;;;18.20;90.40;;;;;;5087180;28;20444;-49
2021/11/24 11:10:20;;;;;;;33.22;29.73;;;17.50;90.70;;;;;;5072720;28;20036;-50
2021/11/24 11:12:49;;;;;;;32.03;28.70;;;17.90;90.70;;;;;;5083550;28;20048;-58
2021/11/24 11:15:17;;;;;;;33.20;29.67;;;17.10;90.50;;;;;;5058425;28;20627;-46
2021/11/24 11:18:05;;;;;;;34.05;30.58;;;16.20;91.70;;;;;;5074404;28;20715;-52
2021/11/24 11:20:35;;;;;;;34.13;28.77;;;16.80;92.00;;;;;;5061073;28;20472;-52
2021/11/24 11:23:07;;;;;;;31.92;28.40;;;17.30;92.10;;;;;;5062529;28;20108;-54
2021/11/24 11:25:33;;;;;;;31.20;27.98;;;17.60;91.70;;;;;;5056025;28;20503;-49
2021/11/24 11:28:00;;;;;;;30.23;27.02;;;17.20;90.50;;;;;;5058160;28;20031;-49
2021/11/24 11:30:28;;;;;;;34.20;30.48;;;17.20;91.00;;;;;;5068664;28;20035;-51
2021/11/24 11:32:54;;;;;;;33.42;29.88;;;16.90;90.80;;;;;;5052652;28;20420;-50
2021/11/24 11:35:21;;;;;;;29.40;26.30;;;17.10;91.30;;;;;;5066875;28;20436;-50
2021/11/24 11:37:48;;;;;;;24.27;21.83;;;17.40;90.80;;;;;;5052462;28;20033;-49
2021/11/24 11:40:16;;;;;;;22.90;20.48;;;17.00;87.80;;;;;;5082669;28;20066;-49
2021/11/24 11:42:48;;;;;;;22.27;20.08;;;17.20;87.90;;;;;;5071817;28;20464;-49
2021/11/24 11:45:16;;;;;;;22.98;20.73;;;17.10;88.00;;;;;;5070665;28;20102;-49
2021/11/24 11:47:53;;;;;;;23.15;20.65;;;16.80;86.60;;;;;;5068612;28;20036;-49
2021/11/24 11:50:38;;;;;;;26.35;23.65;;;16.80;88.30;;;;;;5071950;28;20024;-49
2021/11/24 11:53:39;;;;;;;24.85;21.75;;;17.60;88.60;;;;;;5072364;28;20037;-49
2021/11/24 11:56:20;;;;;;;22.33;18.85;;;17.40;87.60;;;;;;5048917;28;20047;-49
2021/11/24 11:58:48;;;;;;;23.13;19.80;;;16.50;87.00;;;;;;5034052;28;20484;-49
2021/11/24 12:01:17;;;;;;;25.35;20.92;;;15.90;88.30;;;;;;5049772;28;20059;-48
2021/11/24 12:04:01;;;;;;;24.70;21.27;;;16.40;90.10;;;;;;5049752;28;20087;-48
2021/11/24 12:07:01;;;;;;;23.35;19.23;;;16.60;88.50;;;;;;5049428;28;20524;-49
2021/11/24 12:09:32;;;;;;;22.38;18.90;;;;;;;;;;4990489;28;20042;-48
2021/11/24 12:14:52;;;;;;;25.80;20.10;;;14.90;90.30;;;;;;4991425;28;20049;-49
2021/11/24 12:17:33;;;;;;;25.42;20.20;;;14.20;91.20;;;;;;4977957;28;20034;-49
2021/11/24 12:20:14;;;;;;;22.98;17.00;;;14.40;91.20;;;;;;4994070;28;20069;-49
2021/11/24 12:22:45;;;;;;;24.70;19.65;;;14.10;91.60;;;;;;4993914;28;20413;-50
2021/11/24 12:27:57;;;;;;;20.00;14.80;;;14.10;92.30;;;;;;4993692;28;20073;-49
2021/11/24 12:33:13;;;;;;;19.38;14.88;;;13.50;91.30;;;;;;5033117;28;20132;-49
2021/11/24 12:35:46;;;;;;;18.75;14.88;;;13.70;91.10;;;;;;5032922;28;20029;-50
2021/11/24 12:38:13;;;;;;;19.17;14.50;;;13.50;91.10;;;;;;5033156;28;20033;-49
2021/11/24 12:40:42;;;;;;;17.35;13.07;;;13.40;91.90;;;;;;5032998;28;20064;-49
2021/11/24 12:43:16;;;;;;;19.17;15.43;;;13.10;90.60;;;;;;5032846;28;20789;-49
2021/11/24 12:46:01;;;;;;;23.20;16.63;;;13.30;91.00;;;;;;5043746;28;20569;-49